createdAt,value
2018-07-24T00:01:26.980Z,18.11
2018-07-24T00:03:54.099Z,18.13
2018-07-24T00:06:21.303Z,18.27
2018-07-24T00:08:48.447Z,18.41
2018-07-24T00:11:15.532Z,18.26
2018-07-24T00:13:42.842Z,18.14
2018-07-24T00:16:10.007Z,18.36
2018-07-24T00:18:37.179Z,18.50
2018-07-24T00:21:04.319Z,18.70
2018-07-24T00:23:31.416Z,18.78
2018-07-24T00:25:58.588Z,18.95
2018-07-24T00:28:33.087Z,18.72
2018-07-24T00:31:00.187Z,18.45
2018-07-24T00:33:27.355Z,18.23
2018-07-24T00:35:54.544Z,18.47
2018-07-24T00:38:21.668Z,18.44
2018-07-24T00:40:48.787Z,18.63
2018-07-24T00:43:15.925Z,18.76
2018-07-24T00:45:43.056Z,18.50
2018-07-24T00:48:10.192Z,18.41
2018-07-24T00:50:37.335Z,18.41
2018-07-24T00:53:04.474Z,18.36
2018-07-24T00:55:31.644Z,18.29
2018-07-24T00:57:58.775Z,18.24
2018-07-24T01:00:25.939Z,18.17
2018-07-24T01:02:53.087Z,17.93
2018-07-24T01:05:20.175Z,17.85
2018-07-24T01:07:47.285Z,17.47
2018-07-24T01:10:14.412Z,17.36
2018-07-24T01:12:41.600Z,17.12
2018-07-24T01:15:08.717Z,17.00
2018-07-24T01:17:35.907Z,16.94
2018-07-24T01:20:03.899Z,17.39
2018-07-24T01:22:31.043Z,17.33
2018-07-24T01:24:58.255Z,17.09
2018-07-24T01:27:25.398Z,17.17
2018-07-24T01:29:52.679Z,17.22
2018-07-24T01:32:19.836Z,17.25
2018-07-24T01:34:46.987Z,17.23
2018-07-24T01:37:14.117Z,17.15
2018-07-24T01:39:41.276Z,17.16
2018-07-24T01:42:08.441Z,17.16
2018-07-24T01:44:35.581Z,17.04
2018-07-24T01:47:03.176Z,17.01
2018-07-24T01:49:30.308Z,16.97
2018-07-24T01:51:57.533Z,16.98
2018-07-24T01:54:24.778Z,16.93
2018-07-24T01:56:51.929Z,17.03
2018-07-24T01:59:19.071Z,17.00
2018-07-24T02:01:46.221Z,17.14
2018-07-24T02:04:13.369Z,17.27
2018-07-24T02:06:40.569Z,17.43
2018-07-24T02:09:08.861Z,17.43
2018-07-24T02:11:36.048Z,17.35
2018-07-24T02:14:03.256Z,17.12
2018-07-24T02:16:30.401Z,17.02
2018-07-24T02:18:57.569Z,17.11
2018-07-24T02:21:24.748Z,17.30
2018-07-24T02:23:51.896Z,17.30
2018-07-24T02:26:19.072Z,17.44
2018-07-24T02:28:46.242Z,17.15
2018-07-24T02:31:13.406Z,16.82
2018-07-24T02:33:40.546Z,16.46
2018-07-24T02:36:07.659Z,16.45
2018-07-24T02:38:34.765Z,16.60
2018-07-24T02:41:01.996Z,16.76
2018-07-24T02:43:29.140Z,16.88
2018-07-24T02:45:56.234Z,17.05
2018-07-24T02:48:23.352Z,16.95
2018-07-24T02:50:50.508Z,16.95
2018-07-24T02:53:17.652Z,17.03
2018-07-24T02:55:44.817Z,17.07
2018-07-24T02:58:11.976Z,16.95
2018-07-24T03:00:39.133Z,16.44
2018-07-24T03:03:06.405Z,16.76
2018-07-24T03:05:40.437Z,16.93
2018-07-24T03:08:07.596Z,16.98
2018-07-24T03:10:34.757Z,17.00
2018-07-24T03:13:02.030Z,16.92
2018-07-24T03:15:29.108Z,16.89
2018-07-24T03:17:56.228Z,16.69
2018-07-24T03:20:23.357Z,16.81
2018-07-24T03:22:50.488Z,16.75
2018-07-24T03:25:17.577Z,16.75
2018-07-24T03:27:44.718Z,16.72
2018-07-24T03:30:11.885Z,16.73
2018-07-24T03:32:39.040Z,16.62
2018-07-24T03:35:06.204Z,16.51
2018-07-24T03:37:33.333Z,16.28
2018-07-24T03:40:00.441Z,16.22
2018-07-24T03:42:27.556Z,15.87
2018-07-24T03:44:54.737Z,15.59
2018-07-24T03:47:21.898Z,15.38
2018-07-24T03:49:49.084Z,15.22
2018-07-24T03:52:16.220Z,15.25
2018-07-24T03:54:43.882Z,15.41
2018-07-24T03:57:11.064Z,15.54
2018-07-24T03:59:38.191Z,15.71
2018-07-24T04:02:05.441Z,15.92
2018-07-24T04:07:06.591Z,15.57
2018-07-24T04:09:33.721Z,15.60
2018-07-24T04:12:00.848Z,15.68
2018-07-24T04:14:27.992Z,15.91
2018-07-24T04:16:55.212Z,15.96
2018-07-24T04:19:22.382Z,15.87
2018-07-24T04:21:49.829Z,15.75
2018-07-24T04:24:16.945Z,16.15
2018-07-24T04:26:44.057Z,16.11
2018-07-24T04:29:11.206Z,16.02
2018-07-24T04:31:38.348Z,16.19
2018-07-24T04:34:05.589Z,15.91
2018-07-24T04:36:32.721Z,15.93
2018-07-24T04:38:59.809Z,16.11
2018-07-24T04:41:26.907Z,15.83
2018-07-24T04:43:54.055Z,16.05
2018-07-24T04:46:21.151Z,16.33
2018-07-24T04:48:48.304Z,16.38
2018-07-24T04:51:15.531Z,16.26
2018-07-24T04:53:42.824Z,16.56
2018-07-24T04:56:09.980Z,16.48
2018-07-24T04:58:37.107Z,16.62
2018-07-24T05:01:04.209Z,16.60
2018-07-24T05:03:31.376Z,16.81
2018-07-24T05:05:58.553Z,16.98
2018-07-24T05:08:25.724Z,16.91
2018-07-24T05:10:52.866Z,17.19
2018-07-24T05:13:20.024Z,16.87
2018-07-24T05:15:47.116Z,17.11
2018-07-24T05:18:14.285Z,17.38
2018-07-24T05:20:41.496Z,17.58
2018-07-24T05:23:08.657Z,17.68
2018-07-24T05:25:35.801Z,17.79
2018-07-24T05:28:02.891Z,17.69
2018-07-24T05:30:30.022Z,17.93
2018-07-24T05:32:57.168Z,17.82
2018-07-24T05:35:24.358Z,17.95
2018-07-24T05:37:51.497Z,18.00
2018-07-24T05:40:18.616Z,18.31
2018-07-24T05:42:45.732Z,18.51
2018-07-24T05:45:12.876Z,18.87
2018-07-24T05:47:40.050Z,18.95
2018-07-24T05:50:07.457Z,18.90
2018-07-24T05:52:34.627Z,19.03
2018-07-24T05:55:02.609Z,19.25
2018-07-24T05:57:29.729Z,19.29
2018-07-24T05:59:56.929Z,19.36
2018-07-24T06:02:24.128Z,19.54
2018-07-24T06:04:51.275Z,19.67
2018-07-24T06:07:18.487Z,19.90
2018-07-24T06:09:46.013Z,20.16
2018-07-24T06:12:13.181Z,20.43
2018-07-24T06:14:40.349Z,20.63
2018-07-24T06:17:07.497Z,20.60
2018-07-24T06:19:34.645Z,20.65
2018-07-24T06:22:01.790Z,20.75
2018-07-24T06:24:28.900Z,21.04
2018-07-24T06:26:56.056Z,21.14
2018-07-24T06:29:23.218Z,21.08
2018-07-24T06:31:50.388Z,21.18
2018-07-24T06:34:17.536Z,21.38
2018-07-24T06:36:44.680Z,21.54
2018-07-24T06:39:12.840Z,21.69
2018-07-24T06:41:40.724Z,21.84
2018-07-24T06:44:08.175Z,22.04
2018-07-24T06:46:35.332Z,22.11
2018-07-24T06:49:02.828Z,22.30
2018-07-24T06:51:30.053Z,22.29
2018-07-24T06:53:57.172Z,22.35
2018-07-24T06:56:24.275Z,22.72
2018-07-24T06:58:51.440Z,23.02
2018-07-24T07:01:18.965Z,22.64
2018-07-24T07:03:46.132Z,22.86
2018-07-24T07:06:13.313Z,22.91
2018-07-24T07:08:40.525Z,23.21
2018-07-24T07:11:07.768Z,23.57
2018-07-24T07:13:35.036Z,23.75
2018-07-24T07:16:02.245Z,23.44
2018-07-24T07:18:29.357Z,23.59
2018-07-24T07:20:56.505Z,23.98
2018-07-24T07:23:23.647Z,24.20
2018-07-24T07:25:50.813Z,24.37
2018-07-24T07:28:17.973Z,24.60
2018-07-24T07:30:45.115Z,24.56
2018-07-24T07:33:12.263Z,24.75
2018-07-24T07:35:39.460Z,25.10
2018-07-24T07:38:06.607Z,25.40
2018-07-24T07:40:33.729Z,25.40
2018-07-24T07:43:00.978Z,25.26
2018-07-24T07:45:28.153Z,25.27
2018-07-24T07:47:55.335Z,25.58
2018-07-24T07:50:22.512Z,25.69
2018-07-24T07:52:49.726Z,26.00
2018-07-24T07:55:16.862Z,26.24
2018-07-24T07:57:43.949Z,26.36
2018-07-24T08:00:11.136Z,26.64
2018-07-24T08:02:38.245Z,26.71
2018-07-24T08:05:05.790Z,26.90
2018-07-24T08:07:32.976Z,26.62
2018-07-24T08:10:00.432Z,26.52
2018-07-24T08:12:27.788Z,27.29
2018-07-24T08:14:54.936Z,27.36
2018-07-24T08:17:22.095Z,27.51
2018-07-24T08:19:49.277Z,27.59
2018-07-24T08:22:16.556Z,27.58
2018-07-24T08:24:43.654Z,27.42
2018-07-24T08:29:50.377Z,27.43
2018-07-24T08:32:17.593Z,27.59
2018-07-24T08:34:44.728Z,27.53
2018-07-24T08:37:11.843Z,27.67
2018-07-24T08:39:39.095Z,27.85
2018-07-24T08:42:06.253Z,27.84
2018-07-24T08:44:33.388Z,28.03
2018-07-24T08:47:00.533Z,28.00
2018-07-24T08:49:27.712Z,28.33
2018-07-24T08:51:54.892Z,28.20
2018-07-24T08:54:22.261Z,28.31
2018-07-24T08:56:49.245Z,28.43
2018-07-24T08:59:16.379Z,28.50
2018-07-24T09:01:43.542Z,28.44
2018-07-24T09:04:10.741Z,28.37
2018-07-24T09:06:37.875Z,28.67
2018-07-24T09:09:07.454Z,28.56
2018-07-24T09:11:34.622Z,28.87
2018-07-24T09:14:01.722Z,29.18
2018-07-24T09:16:28.856Z,28.89
2018-07-24T09:18:55.969Z,28.74
2018-07-24T09:21:23.173Z,28.92
2018-07-24T09:23:50.320Z,28.91
2018-07-24T09:26:17.455Z,29.26
2018-07-24T09:28:44.616Z,29.16
2018-07-24T09:31:11.805Z,29.27
2018-07-24T09:33:38.924Z,29.13
2018-07-24T09:36:06.084Z,29.04
2018-07-24T09:38:33.236Z,29.44
2018-07-24T09:41:00.402Z,29.28
2018-07-24T09:43:27.570Z,28.74
2018-07-24T09:45:54.776Z,27.94
2018-07-24T09:48:21.923Z,28.22
2018-07-24T09:50:49.077Z,28.20
2018-07-24T09:53:16.211Z,28.61
2018-07-24T09:55:43.352Z,28.77
2018-07-24T09:58:10.528Z,28.81
2018-07-24T10:00:43.389Z,28.48
2018-07-24T10:03:10.533Z,28.82
2018-07-24T10:05:37.663Z,28.48
2018-07-24T10:08:04.872Z,28.00
2018-07-24T10:10:32.152Z,27.64
2018-07-24T10:12:59.353Z,27.49
2018-07-24T10:15:26.504Z,27.84
2018-07-24T10:17:53.705Z,28.29
2018-07-24T10:20:20.868Z,28.49
2018-07-24T10:22:47.957Z,29.12
2018-07-24T10:25:15.105Z,29.69
2018-07-24T10:27:42.265Z,29.90
2018-07-24T10:30:09.438Z,29.81
2018-07-24T10:32:36.909Z,29.82
2018-07-24T10:35:05.027Z,29.76
2018-07-24T10:37:32.165Z,28.92
2018-07-24T10:39:59.347Z,28.89
2018-07-24T10:42:26.527Z,28.89
2018-07-24T10:44:53.719Z,28.96
2018-07-24T10:47:20.861Z,29.35
2018-07-24T10:49:47.989Z,29.56
2018-07-24T10:52:15.192Z,29.96
2018-07-24T10:54:42.506Z,29.89
2018-07-24T10:57:09.665Z,30.39
2018-07-24T10:59:36.848Z,30.70
2018-07-24T11:02:04.112Z,31.02
2018-07-24T11:04:31.233Z,30.74
2018-07-24T11:06:58.367Z,30.56
2018-07-24T11:09:25.537Z,30.34
2018-07-24T11:11:52.671Z,30.94
2018-07-24T11:14:19.808Z,31.24
2018-07-24T11:16:46.993Z,30.73
2018-07-24T11:19:14.147Z,31.20
2018-07-24T11:21:41.254Z,31.39
2018-07-24T11:24:08.428Z,30.46
2018-07-24T11:26:35.554Z,30.13
2018-07-24T11:29:02.723Z,30.71
2018-07-24T11:31:29.923Z,31.32
2018-07-24T11:33:57.100Z,31.30
2018-07-24T11:36:24.366Z,31.24
2018-07-24T11:38:51.696Z,31.28
2018-07-24T11:41:18.821Z,30.20
2018-07-24T11:43:45.983Z,30.52
2018-07-24T11:46:13.108Z,31.25
2018-07-24T11:48:40.264Z,31.49
2018-07-24T11:51:07.694Z,32.12
2018-07-24T11:53:34.869Z,31.65
2018-07-24T11:56:01.998Z,31.79
2018-07-24T11:58:29.168Z,31.92
2018-07-24T12:00:56.329Z,32.41
2018-07-24T12:03:23.493Z,32.39
2018-07-24T12:05:50.707Z,32.38
2018-07-24T12:08:17.841Z,32.81
2018-07-24T12:10:44.972Z,32.86
2018-07-24T12:13:12.078Z,32.86
2018-07-24T12:15:39.273Z,33.11
2018-07-24T12:18:06.446Z,33.44
2018-07-24T12:20:33.577Z,32.97
2018-07-24T12:23:00.794Z,33.02
2018-07-24T12:25:27.919Z,33.67
2018-07-24T12:27:55.101Z,34.10
2018-07-24T12:30:22.237Z,33.76
2018-07-24T12:32:49.364Z,33.65
2018-07-24T12:35:16.534Z,33.84
2018-07-24T12:37:43.657Z,33.51
2018-07-24T12:40:10.827Z,33.54
2018-07-24T12:42:38.235Z,33.12
2018-07-24T12:45:06.005Z,31.92
2018-07-24T12:47:33.464Z,33.00
2018-07-24T12:50:00.613Z,32.14
2018-07-24T12:52:27.839Z,33.12
2018-07-24T12:54:54.929Z,33.22
2018-07-24T12:57:23.003Z,32.99
2018-07-24T12:59:50.153Z,33.93
2018-07-24T13:02:17.383Z,33.48
2018-07-24T13:04:44.506Z,32.94
2018-07-24T13:07:11.724Z,33.81
2018-07-24T13:09:38.903Z,34.62
2018-07-24T13:12:06.133Z,33.69
2018-07-24T13:14:33.310Z,32.42
2018-07-24T13:17:00.452Z,31.67
2018-07-24T13:19:27.604Z,32.80
2018-07-24T13:21:54.728Z,33.24
2018-07-24T13:24:21.899Z,33.26
2018-07-24T13:26:49.049Z,34.22
2018-07-24T13:29:16.146Z,34.84
2018-07-24T13:31:43.386Z,34.16
2018-07-24T13:34:10.504Z,33.96
2018-07-24T13:36:37.664Z,33.74
2018-07-24T13:39:07.524Z,32.33
2018-07-24T13:41:34.756Z,33.54
2018-07-24T13:44:01.941Z,34.09
2018-07-24T13:46:29.101Z,33.57
2018-07-24T13:48:56.263Z,32.20
2018-07-24T13:51:23.431Z,32.14
2018-07-24T13:53:50.618Z,31.85
2018-07-24T13:56:17.780Z,32.30
2018-07-24T13:58:44.946Z,32.24
2018-07-24T14:01:12.088Z,33.23
2018-07-24T14:03:39.223Z,33.54
2018-07-24T14:06:06.364Z,34.26
2018-07-24T14:08:33.637Z,34.62
2018-07-24T14:11:00.749Z,34.17
2018-07-24T14:13:27.896Z,33.97
2018-07-24T14:15:55.098Z,34.39
2018-07-24T14:18:22.181Z,34.79
2018-07-24T14:20:49.336Z,34.69
2018-07-24T14:23:16.508Z,33.66
2018-07-24T14:25:43.733Z,34.29
2018-07-24T14:28:10.901Z,34.03
2018-07-24T14:30:38.712Z,33.83
2018-07-24T14:33:05.908Z,34.22
2018-07-24T14:35:33.219Z,34.29
2018-07-24T14:38:01.479Z,33.06
2018-07-24T14:40:28.682Z,32.83
2018-07-24T14:42:56.421Z,33.69
2018-07-24T14:45:23.600Z,33.78
2018-07-24T14:47:50.749Z,33.15
2018-07-24T14:50:17.921Z,33.45
2018-07-24T14:52:45.152Z,32.99
2018-07-24T14:55:12.412Z,33.94
2018-07-24T14:57:39.549Z,32.68
2018-07-24T15:00:07.699Z,32.82
2018-07-24T15:02:34.903Z,33.06
2018-07-24T15:05:02.625Z,33.03
2018-07-24T15:07:29.779Z,33.66
2018-07-24T15:09:56.986Z,34.02
2018-07-24T15:12:24.123Z,33.50
2018-07-24T15:14:51.428Z,33.50
2018-07-24T15:17:18.609Z,33.51
2018-07-24T15:19:45.795Z,33.31
2018-07-24T15:22:12.952Z,34.06
2018-07-24T15:24:40.061Z,33.29
2018-07-24T15:27:07.229Z,33.40
2018-07-24T15:29:34.451Z,33.34
2018-07-24T15:32:01.618Z,31.96
2018-07-24T15:34:28.820Z,32.00
2018-07-24T15:36:55.948Z,32.42
2018-07-24T15:39:23.246Z,32.92
2018-07-24T15:41:50.445Z,32.98
2018-07-24T15:44:17.673Z,33.26
2018-07-24T15:46:44.930Z,32.93
2018-07-24T15:49:12.052Z,33.20
2018-07-24T15:51:39.324Z,33.28
2018-07-24T15:54:06.485Z,33.46
2018-07-24T15:56:33.669Z,32.96
2018-07-24T15:59:00.813Z,33.84
2018-07-24T16:01:27.980Z,33.18
2018-07-24T16:03:55.160Z,34.36
2018-07-24T16:06:22.377Z,34.35
2018-07-24T16:08:49.533Z,34.00
2018-07-24T16:11:16.672Z,33.35
2018-07-24T16:13:43.805Z,32.95
2018-07-24T16:16:10.977Z,32.73
2018-07-24T16:18:38.105Z,32.57
2018-07-24T16:21:05.311Z,32.74
2018-07-24T16:23:32.500Z,32.34
2018-07-24T16:25:59.692Z,32.80
2018-07-24T16:28:26.855Z,32.27
2018-07-24T16:30:53.976Z,31.99
2018-07-24T16:33:21.142Z,31.67
2018-07-24T16:35:48.337Z,31.57
2018-07-24T16:38:15.522Z,31.25
2018-07-24T16:40:42.620Z,31.54
2018-07-24T16:43:09.848Z,31.44
2018-07-24T16:45:37.025Z,31.38
2018-07-24T16:48:04.233Z,31.41
2018-07-24T16:50:31.475Z,31.76
2018-07-24T16:52:58.599Z,31.62
2018-07-24T16:55:25.712Z,31.16
2018-07-24T16:57:52.967Z,31.07
2018-07-24T17:00:20.140Z,31.07
2018-07-24T17:02:47.306Z,31.00
2018-07-24T17:05:14.460Z,30.84
2018-07-24T17:07:41.614Z,30.76
2018-07-24T17:10:08.862Z,30.69
2018-07-24T17:12:36.063Z,30.53
2018-07-24T17:15:04.796Z,30.58
2018-07-24T17:17:31.914Z,30.62
2018-07-24T17:19:59.095Z,30.46
2018-07-24T17:22:26.332Z,30.61
2018-07-24T17:24:53.432Z,30.64
2018-07-24T17:27:20.618Z,30.74
2018-07-24T17:29:47.733Z,30.63
2018-07-24T17:32:14.880Z,30.71
2018-07-24T17:34:42.018Z,30.60
2018-07-24T17:37:09.166Z,30.59
2018-07-24T17:39:36.316Z,30.67
2018-07-24T17:42:03.521Z,30.56
2018-07-24T17:44:30.657Z,30.45
2018-07-24T17:46:57.829Z,30.15
2018-07-24T17:49:25.033Z,29.98
2018-07-24T17:51:52.267Z,30.09
2018-07-24T17:54:19.440Z,30.22
2018-07-24T17:56:46.565Z,30.14
2018-07-24T17:59:13.697Z,30.10
2018-07-24T18:01:40.847Z,30.13
2018-07-24T18:04:08.004Z,30.19
2018-07-24T18:06:35.181Z,30.17
2018-07-24T18:09:02.941Z,30.17
2018-07-24T18:11:30.141Z,30.21
2018-07-24T18:13:57.298Z,30.19
2018-07-24T18:16:24.449Z,30.13
2018-07-24T18:18:51.605Z,29.96
2018-07-24T18:21:18.885Z,29.42
2018-07-24T18:23:46.129Z,29.70
2018-07-24T18:26:13.310Z,29.60
2018-07-24T18:28:40.457Z,29.52
2018-07-24T18:31:07.636Z,29.48
2018-07-24T18:33:34.780Z,29.28
2018-07-24T18:36:01.964Z,29.32
2018-07-24T18:38:29.173Z,29.23
2018-07-24T18:40:56.332Z,29.25
2018-07-24T18:43:23.484Z,29.20
2018-07-24T18:45:50.701Z,28.99
2018-07-24T18:48:17.867Z,28.59
2018-07-24T18:50:45.037Z,28.38
2018-07-24T18:53:12.197Z,28.37
2018-07-24T18:55:39.351Z,28.25
2018-07-24T18:58:06.589Z,28.00
2018-07-24T19:00:33.741Z,28.11
2018-07-24T19:03:00.920Z,27.95
2018-07-24T19:05:28.134Z,27.97
2018-07-24T19:07:55.234Z,27.66
2018-07-24T19:10:22.361Z,27.75
2018-07-24T19:12:49.499Z,27.67
2018-07-24T19:15:16.692Z,27.54
2018-07-24T19:17:43.856Z,27.60
2018-07-24T19:20:10.998Z,27.57
2018-07-24T19:22:38.201Z,27.69
2018-07-24T19:25:05.381Z,27.76
2018-07-24T19:27:32.637Z,27.72
2018-07-24T19:29:59.857Z,27.62
2018-07-24T19:32:27.075Z,27.58
2018-07-24T19:34:54.527Z,27.29
2018-07-24T19:37:21.884Z,27.36
2018-07-24T19:39:49.355Z,27.33
2018-07-24T19:42:16.786Z,27.23
2018-07-24T19:44:44.152Z,27.16
2018-07-24T19:47:11.661Z,27.13
2018-07-24T19:49:39.067Z,27.10
2018-07-24T19:52:06.488Z,27.25
2018-07-24T19:54:33.948Z,27.23
2018-07-24T19:57:01.329Z,26.92
2018-07-24T19:59:30.325Z,26.98
2018-07-24T20:01:58.592Z,27.00
2018-07-24T20:04:25.950Z,26.76
2018-07-24T20:06:53.292Z,26.71
2018-07-24T20:09:21.282Z,26.81
2018-07-24T20:11:48.586Z,26.89
2018-07-24T20:14:15.854Z,26.62
2018-07-24T20:16:43.104Z,26.59
2018-07-24T20:19:10.393Z,26.44
2018-07-24T20:21:37.772Z,26.53
2018-07-24T20:24:06.015Z,26.36
2018-07-24T20:26:33.418Z,26.34
2018-07-24T20:29:00.691Z,26.22
2018-07-24T20:31:28.188Z,26.21
2018-07-24T20:33:55.469Z,26.12
2018-07-24T20:36:22.728Z,26.07
2018-07-24T20:38:49.949Z,26.04
2018-07-24T20:41:17.427Z,25.95
2018-07-24T20:43:44.621Z,26.03
2018-07-24T20:46:11.894Z,26.03
2018-07-24T20:48:39.235Z,25.91
2018-07-24T20:51:06.605Z,25.71
2018-07-24T20:53:33.880Z,25.73
2018-07-24T20:56:01.039Z,25.64
2018-07-24T20:58:28.209Z,25.55
2018-07-24T21:00:55.429Z,25.38
2018-07-24T21:03:22.701Z,25.30
2018-07-24T21:05:49.922Z,25.46
2018-07-24T21:08:17.085Z,25.26
2018-07-24T21:10:44.257Z,25.35
2018-07-24T21:13:11.437Z,25.39
2018-07-24T21:15:38.642Z,25.15
2018-07-24T21:18:05.875Z,25.16
2018-07-24T21:20:33.101Z,25.18
2018-07-24T21:23:00.829Z,24.88
2018-07-24T21:25:28.022Z,25.00
2018-07-24T21:27:55.231Z,24.99
2018-07-24T21:30:22.444Z,25.03
2018-07-24T21:32:49.672Z,24.85
2018-07-24T21:35:16.943Z,25.02
2018-07-24T21:37:44.152Z,24.97
2018-07-24T21:40:11.272Z,25.06
2018-07-24T21:42:38.577Z,25.20
2018-07-24T21:45:05.732Z,25.19
2018-07-24T21:47:32.936Z,25.11
2018-07-24T21:50:00.072Z,25.15
2018-07-24T21:52:27.326Z,25.14
2018-07-24T21:54:54.407Z,25.02
2018-07-24T21:57:21.552Z,25.04
2018-07-24T21:59:48.766Z,25.05
2018-07-24T22:02:15.957Z,24.97
2018-07-24T22:04:43.106Z,24.94
2018-07-24T22:07:10.285Z,25.08
2018-07-24T22:09:37.512Z,24.99
2018-07-24T22:12:04.676Z,24.97
2018-07-24T22:14:31.846Z,24.88
2018-07-24T22:16:59.000Z,24.88
2018-07-24T22:19:26.183Z,24.87
2018-07-24T22:21:53.364Z,24.87
2018-07-24T22:24:20.545Z,24.94
2018-07-24T22:26:47.728Z,24.84
2018-07-24T22:29:14.901Z,24.99
2018-07-24T22:31:42.065Z,24.94
2018-07-24T22:34:09.209Z,24.82
2018-07-24T22:36:36.425Z,24.96
2018-07-24T22:39:06.868Z,24.91
2018-07-24T22:41:34.017Z,24.79
2018-07-24T22:44:01.117Z,24.71
2018-07-24T22:46:28.261Z,24.61
2018-07-24T22:48:55.426Z,24.53
2018-07-24T22:51:22.566Z,24.60
2018-07-24T22:53:49.724Z,24.62
2018-07-24T22:56:16.905Z,24.66
2018-07-24T22:58:44.080Z,24.58
2018-07-24T23:01:11.226Z,24.49
2018-07-24T23:03:38.360Z,24.36
2018-07-24T23:06:05.556Z,24.10
2018-07-24T23:08:32.681Z,24.04
2018-07-24T23:10:59.863Z,24.12
2018-07-24T23:13:26.972Z,24.10
2018-07-24T23:15:54.110Z,24.07
2018-07-24T23:18:21.197Z,23.87
2018-07-24T23:20:48.325Z,23.79
2018-07-24T23:23:15.433Z,23.09
2018-07-24T23:25:42.588Z,22.68
2018-07-24T23:28:09.733Z,22.53
2018-07-24T23:30:36.904Z,22.27
2018-07-24T23:33:04.097Z,22.57
2018-07-24T23:35:31.448Z,22.68
2018-07-24T23:37:58.564Z,22.75
2018-07-24T23:40:25.712Z,22.00
2018-07-24T23:42:52.910Z,22.12
2018-07-24T23:45:20.056Z,21.38
2018-07-24T23:47:47.192Z,21.24
2018-07-24T23:50:14.341Z,21.43
2018-07-24T23:52:41.481Z,21.44
2018-07-24T23:55:08.661Z,21.90
2018-07-24T23:57:35.824Z,22.06
